Terminal Aerodrome Forecast
Issued by NWS Riverton, WY

Home | Current Version | Previous Version | Text Only | Print | Product List | Glossary On
Versions: 1 2 3 4 5 6 7 8 9 10 11 12
863
FTUS45 KRIW 052322
TAFRIW
TAF
KRIW 052322Z 0600/0624 13006KT P6SM SCT090 BKN150
     FM060200 30011KT P6SM SCT070 BKN100
     FM061400 06012KT P6SM VCSH SCT030 BKN070
     FM062000 07014G21KT P6SM VCTS SCT025CB BKN060=

USA.gov is the U.S. government's official web portal to all federal, state and local government web resources and services.